LFRO/LAI METAR and TAF weather

Enter ICAO airport designator
Station Type Date Time Source
LFRO METAR 2019/06/18 13:00 UTC NOAA

LFRO 181300Z AUTO 02006KT 350V060 9999 OVC005 16/14 Q1010


Station Type Date Time Source
LFRO Decoded METAR 2019/06/18 13:00 UTC NOAA

Lannion / Servel, France (LFRO) 48-45N 003-28W
Jun 18, 2019 - 09:00 AM EDT / 2019.06.18 1300 UTC
Wind: from the NNE (020 degrees) at 7 MPH (6 KT) (direction variable):0
Visibility: greater than 7 mile(s):0
Sky conditions: overcast
Temperature: 60 F (16 C)
Dew Point: 57 F (14 C)
Relative Humidity: 87%
Pressure (altimeter): 29.83 in. Hg (1010 hPa)
ob: LFRO 181300Z AUTO 02006KT 350V060 9999 OVC005 16/14 Q1010
cycle: 13

Station Type Date Time Source
LFRO TAF 2019/05/15 19:06 UTC NOAA

TAF LFRO 151936Z 1519/1612 CNL

Example: see airport list